sensor_id;sensor_type;location;lat;lon;timestamp;pressure;altitude;pressure_sealevel;temperature;humidity
23616;BME280;11985;49.404;7.734;2023-01-20T00:01:31;96640.31;;;-2.22;100.00
23616;BME280;11985;49.404;7.734;2023-01-20T00:06:32;96639.75;;;-2.25;100.00
23616;BME280;11985;49.404;7.734;2023-01-20T00:11:35;96642.75;;;-2.30;100.00
23616;BME280;11985;49.404;7.734;2023-01-20T00:16:37;96641.97;;;-2.40;100.00
23616;BME280;11985;49.404;7.734;2023-01-20T00:21:38;96647.03;;;-2.48;100.00
23616;BME280;11985;49.404;7.734;2023-01-20T00:26:41;96654.75;;;-2.48;100.00
23616;BME280;11985;49.404;7.734;2023-01-20T00:31:43;96663.16;;;-2.56;100.00
23616;BME280;11985;49.404;7.734;2023-01-20T00:36:44;96658.06;;;-2.66;100.00
23616;BME280;11985;49.404;7.734;2023-01-20T00:41:47;96664.84;;;-2.74;100.00
23616;BME280;11985;49.404;7.734;2023-01-20T00:46:49;96665.53;;;-2.82;100.00
23616;BME280;11985;49.404;7.734;2023-01-20T00:51:50;96672.16;;;-2.89;100.00
23616;BME280;11985;49.404;7.734;2023-01-20T00:56:53;96675.84;;;-3.01;100.00
23616;BME280;11985;49.404;7.734;2023-01-20T01:01:54;96677.34;;;-3.08;100.00
23616;BME280;11985;49.404;7.734;2023-01-20T01:06:56;96685.75;;;-3.16;100.00
23616;BME280;11985;49.404;7.734;2023-01-20T01:11:59;96687.63;;;-3.18;100.00
23616;BME280;11985;49.404;7.734;2023-01-20T01:17:00;96682.75;;;-3.21;100.00
23616;BME280;11985;49.404;7.734;2023-01-20T01:22:02;96696.31;;;-3.19;100.00
23616;BME280;11985;49.404;7.734;2023-01-20T01:27:05;96699.97;;;-3.22;100.00
23616;BME280;11985;49.404;7.734;2023-01-20T01:32:06;96702.56;;;-3.22;100.00
23616;BME280;11985;49.404;7.734;2023-01-20T01:37:08;96702.56;;;-3.22;100.00
23616;BME280;11985;49.404;7.734;2023-01-20T01:42:11;96706.34;;;-3.26;100.00
23616;BME280;11985;49.404;7.734;2023-01-20T01:47:13;96709.56;;;-3.33;100.00
23616;BME280;11985;49.404;7.734;2023-01-20T01:52:15;96723.78;;;-3.39;100.00
23616;BME280;11985;49.404;7.734;2023-01-20T01:57:19;96725.81;;;-3.42;100.00
23616;BME280;11985;49.404;7.734;2023-01-20T02:02:20;96732.31;;;-3.48;100.00
23616;BME280;11985;49.404;7.734;2023-01-20T02:07:22;96743.13;;;-3.54;100.00
23616;BME280;11985;49.404;7.734;2023-01-20T02:12:41;96738.22;;;-3.57;100.00
23616;BME280;11985;49.404;7.734;2023-01-20T02:17:55;96741.75;;;-3.58;100.00
23616;BME280;11985;49.404;7.734;2023-01-20T02:23:05;96747.69;;;-3.67;100.00
23616;BME280;11985;49.404;7.734;2023-01-20T02:28:42;96755.47;;;-3.79;100.00
23616;BME280;11985;49.404;7.734;2023-01-20T02:33:50;96760.91;;;-3.82;100.00
23616;BME280;11985;49.404;7.734;2023-01-20T02:39:00;96762.78;;;-3.84;100.00
23616;BME280;11985;49.404;7.734;2023-01-20T02:44:11;96773.34;;;-3.87;100.00
23616;BME280;11985;49.404;7.734;2023-01-20T02:49:20;96776.53;;;-3.94;100.00
23616;BME280;11985;49.404;7.734;2023-01-20T02:54:28;96785.97;;;-4.05;100.00
23616;BME280;11985;49.404;7.734;2023-01-20T02:59:33;96788.34;;;-4.13;100.00
23616;BME280;11985;49.404;7.734;2023-01-20T03:04:41;96795.69;;;-4.08;100.00
23616;BME280;11985;49.404;7.734;2023-01-20T03:09:47;96789.16;;;-4.12;100.00
23616;BME280;11985;49.404;7.734;2023-01-20T03:14:50;96796.19;;;-4.14;100.00
23616;BME280;11985;49.404;7.734;2023-01-20T03:19:54;96806.72;;;-4.17;100.00
23616;BME280;11985;49.404;7.734;2023-01-20T03:24:57;96817.28;;;-4.20;100.00
23616;BME280;11985;49.404;7.734;2023-01-20T03:29:59;96816.56;;;-4.22;100.00
23616;BME280;11985;49.404;7.734;2023-01-20T03:35:02;96818.81;;;-4.29;100.00
23616;BME280;11985;49.404;7.734;2023-01-20T03:40:04;96828.78;;;-4.36;100.00
23616;BME280;11985;49.404;7.734;2023-01-20T03:45:10;96825.19;;;-4.44;100.00
23616;BME280;11985;49.404;7.734;2023-01-20T03:50:25;96838.44;;;-4.49;100.00
23616;BME280;11985;49.404;7.734;2023-01-20T03:55:34;96842.88;;;-4.51;100.00
23616;BME280;11985;49.404;7.734;2023-01-20T04:00:41;96843.22;;;-4.56;100.00
23616;BME280;11985;49.404;7.734;2023-01-20T04:05:47;96846.09;;;-4.70;100.00
23616;BME280;11985;49.404;7.734;2023-01-20T04:10:49;96846.69;;;-4.66;100.00
23616;BME280;11985;49.404;7.734;2023-01-20T04:15:51;96851.81;;;-4.66;100.00
23616;BME280;11985;49.404;7.734;2023-01-20T04:20:57;96859.13;;;-4.62;100.00
23616;BME280;11985;49.404;7.734;2023-01-20T04:25:59;96864.88;;;-4.58;100.00
23616;BME280;11985;49.404;7.734;2023-01-20T04:31:00;96865.81;;;-4.59;100.00
23616;BME280;11985;49.404;7.734;2023-01-20T04:36:04;96875.63;;;-4.64;100.00
23616;BME280;11985;49.404;7.734;2023-01-20T04:41:05;96871.66;;;-4.68;100.00
23616;BME280;11985;49.404;7.734;2023-01-20T04:46:07;96875.75;;;-4.66;100.00
23616;BME280;11985;49.404;7.734;2023-01-20T04:51:10;96872.47;;;-4.68;100.00
23616;BME280;11985;49.404;7.734;2023-01-20T04:56:12;96880.28;;;-4.58;100.00
23616;BME280;11985;49.404;7.734;2023-01-20T05:01:13;96883.72;;;-4.37;100.00
23616;BME280;11985;49.404;7.734;2023-01-20T05:06:16;96900.13;;;-4.17;100.00
23616;BME280;11985;49.404;7.734;2023-01-20T05:11:18;96894.00;;;-4.05;100.00
23616;BME280;11985;49.404;7.734;2023-01-20T05:16:19;96893.31;;;-3.86;100.00
23616;BME280;11985;49.404;7.734;2023-01-20T05:21:26;96901.59;;;-3.61;100.00
23616;BME280;11985;49.404;7.734;2023-01-20T05:26:27;96905.47;;;-3.46;100.00
23616;BME280;11985;49.404;7.734;2023-01-20T05:31:29;96909.81;;;-3.47;100.00
23616;BME280;11985;49.404;7.734;2023-01-20T05:36:32;96919.28;;;-3.47;100.00
23616;BME280;11985;49.404;7.734;2023-01-20T05:41:34;96927.97;;;-3.48;100.00
23616;BME280;11985;49.404;7.734;2023-01-20T05:46:35;96924.75;;;-3.40;100.00
23616;BME280;11985;49.404;7.734;2023-01-20T05:51:38;96927.25;;;-3.29;100.00
23616;BME280;11985;49.404;7.734;2023-01-20T05:56:40;96941.50;;;-3.25;100.00
23616;BME280;11985;49.404;7.734;2023-01-20T06:01:41;96938.13;;;-3.26;100.00
23616;BME280;11985;49.404;7.734;2023-01-20T06:06:44;96943.06;;;-3.34;100.00
23616;BME280;11985;49.404;7.734;2023-01-20T06:11:46;96950.56;;;-3.31;100.00
23616;BME280;11985;49.404;7.734;2023-01-20T06:16:47;96958.28;;;-3.31;100.00
23616;BME280;11985;49.404;7.734;2023-01-20T06:21:51;96955.38;;;-3.16;100.00
23616;BME280;11985;49.404;7.734;2023-01-20T06:26:52;96967.25;;;-3.04;100.00
23616;BME280;11985;49.404;7.734;2023-01-20T06:31:54;96960.75;;;-2.99;100.00
23616;BME280;11985;49.404;7.734;2023-01-20T06:36:57;96973.94;;;-2.92;100.00
23616;BME280;11985;49.404;7.734;2023-01-20T06:41:59;96979.53;;;-2.87;100.00
23616;BME280;11985;49.404;7.734;2023-01-20T06:47:01;96987.13;;;-2.85;100.00
23616;BME280;11985;49.404;7.734;2023-01-20T06:52:04;96987.41;;;-2.79;100.00
23616;BME280;11985;49.404;7.734;2023-01-20T06:57:05;96998.44;;;-2.77;100.00
23616;BME280;11985;49.404;7.734;2023-01-20T07:02:08;97007.13;;;-2.68;100.00
23616;BME280;11985;49.404;7.734;2023-01-20T07:07:11;97015.44;;;-2.64;100.00
23616;BME280;11985;49.404;7.734;2023-01-20T07:12:13;97015.59;;;-2.56;100.00
23616;BME280;11985;49.404;7.734;2023-01-20T07:17:15;97029.34;;;-2.46;100.00
23616;BME280;11985;49.404;7.734;2023-01-20T07:22:18;97032.06;;;-2.48;100.00
23616;BME280;11985;49.404;7.734;2023-01-20T07:27:19;97043.19;;;-2.47;100.00
23616;BME280;11985;49.404;7.734;2023-01-20T07:32:21;97056.50;;;-2.42;100.00
23616;BME280;11985;49.404;7.734;2023-01-20T07:37:24;97065.50;;;-2.36;100.00
23616;BME280;11985;49.404;7.734;2023-01-20T07:42:25;97064.81;;;-2.38;100.00
23616;BME280;11985;49.404;7.734;2023-01-20T07:47:27;97070.91;;;-2.40;100.00
23616;BME280;11985;49.404;7.734;2023-01-20T07:52:29;97080.06;;;-2.26;100.00
23616;BME280;11985;49.404;7.734;2023-01-20T07:57:31;97073.75;;;-2.02;100.00
23616;BME280;11985;49.404;7.734;2023-01-20T08:02:35;97078.13;;;-1.83;100.00
23616;BME280;11985;49.404;7.734;2023-01-20T08:07:38;97086.84;;;-1.75;100.00
23616;BME280;11985;49.404;7.734;2023-01-20T08:12:40;97101.25;;;-1.82;100.00
23616;BME280;11985;49.404;7.734;2023-01-20T08:17:41;97107.47;;;-1.94;100.00
23616;BME280;11985;49.404;7.734;2023-01-20T08:22:44;97116.13;;;-1.95;100.00
23616;BME280;11985;49.404;7.734;2023-01-20T08:27:47;97117.50;;;-1.91;100.00
23616;BME280;11985;49.404;7.734;2023-01-20T08:32:49;97115.59;;;-1.89;100.00
23616;BME280;11985;49.404;7.734;2023-01-20T08:37:52;97133.78;;;-2.00;100.00
23616;BME280;11985;49.404;7.734;2023-01-20T08:42:53;97139.25;;;-1.94;100.00
23616;BME280;11985;49.404;7.734;2023-01-20T08:47:55;97133.69;;;-1.89;100.00
23616;BME280;11985;49.404;7.734;2023-01-20T08:52:58;97140.13;;;-1.74;100.00
23616;BME280;11985;49.404;7.734;2023-01-20T08:57:59;97136.88;;;-1.56;100.00
23616;BME280;11985;49.404;7.734;2023-01-20T09:03:01;97138.25;;;-1.52;100.00
23616;BME280;11985;49.404;7.734;2023-01-20T09:08:04;97138.41;;;-1.54;100.00
23616;BME280;11985;49.404;7.734;2023-01-20T09:13:06;97147.25;;;-1.47;100.00
23616;BME280;11985;49.404;7.734;2023-01-20T09:18:07;97149.41;;;-1.52;100.00
23616;BME280;11985;49.404;7.734;2023-01-20T09:23:10;97153.75;;;-1.52;100.00
23616;BME280;11985;49.404;7.734;2023-01-20T09:28:11;97167.63;;;-1.53;100.00
23616;BME280;11985;49.404;7.734;2023-01-20T09:33:13;97161.38;;;-1.51;100.00
23616;BME280;11985;49.404;7.734;2023-01-20T09:38:16;97160.84;;;-1.45;100.00
23616;BME280;11985;49.404;7.734;2023-01-20T09:43:42;97162.22;;;-1.41;100.00
23616;BME280;11985;49.404;7.734;2023-01-20T09:49:06;97167.53;;;-1.42;100.00
23616;BME280;11985;49.404;7.734;2023-01-20T09:54:36;97176.66;;;-1.19;100.00
23616;BME280;11985;49.404;7.734;2023-01-20T09:59:43;97173.66;;;-0.95;100.00
23616;BME280;11985;49.404;7.734;2023-01-20T10:04:49;97170.13;;;-0.84;100.00
23616;BME280;11985;49.404;7.734;2023-01-20T10:09:57;97176.94;;;-1.02;100.00
23616;BME280;11985;49.404;7.734;2023-01-20T10:15:05;97188.38;;;-1.15;100.00
23616;BME280;11985;49.404;7.734;2023-01-20T10:20:11;97194.91;;;-1.11;100.00
23616;BME280;11985;49.404;7.734;2023-01-20T10:25:19;97188.66;;;-0.98;100.00
23616;BME280;11985;49.404;7.734;2023-01-20T10:30:24;97188.22;;;-0.84;100.00
23616;BME280;11985;49.404;7.734;2023-01-20T10:35:28;97183.75;;;-0.82;100.00
23616;BME280;11985;49.404;7.734;2023-01-20T10:40:40;97193.25;;;-0.73;100.00
23616;BME280;11985;49.404;7.734;2023-01-20T10:45:56;97183.47;;;-0.69;100.00
23616;BME280;11985;49.404;7.734;2023-01-20T10:51:04;97185.66;;;-0.65;100.00
23616;BME280;11985;49.404;7.734;2023-01-20T10:56:33;97176.63;;;-0.41;100.00
23616;BME280;11985;49.404;7.734;2023-01-20T11:01:36;97181.25;;;-0.35;100.00
23616;BME280;11985;49.404;7.734;2023-01-20T11:06:38;97185.91;;;-0.48;100.00
23616;BME280;11985;49.404;7.734;2023-01-20T11:11:41;97175.56;;;-0.48;100.00
23616;BME280;11985;49.404;7.734;2023-01-20T11:16:43;97186.88;;;-0.49;100.00
23616;BME280;11985;49.404;7.734;2023-01-20T11:21:47;97189.72;;;-0.33;100.00
23616;BME280;11985;49.404;7.734;2023-01-20T11:26:50;97184.63;;;-0.25;100.00
23616;BME280;11985;49.404;7.734;2023-01-20T11:31:53;97194.56;;;-0.20;100.00
23616;BME280;11985;49.404;7.734;2023-01-20T11:37:16;97181.16;;;-0.06;100.00
23616;BME280;11985;49.404;7.734;2023-01-20T11:42:21;97184.94;;;0.09;100.00
23616;BME280;11985;49.404;7.734;2023-01-20T11:47:26;97186.63;;;0.01;100.00
23616;BME280;11985;49.404;7.734;2023-01-20T11:52:28;97187.00;;;0.06;100.00
23616;BME280;11985;49.404;7.734;2023-01-20T11:57:31;97184.41;;;0.33;100.00
23616;BME280;11985;49.404;7.734;2023-01-20T12:02:33;97190.09;;;0.46;100.00
23616;BME280;11985;49.404;7.734;2023-01-20T12:07:39;97191.94;;;0.26;100.00
23616;BME280;11985;49.404;7.734;2023-01-20T12:12:48;97185.44;;;0.22;100.00
23616;BME280;11985;49.404;7.734;2023-01-20T12:17:55;97189.91;;;0.30;100.00
23616;BME280;11985;49.404;7.734;2023-01-20T12:23:12;97188.84;;;0.50;100.00
23616;BME280;11985;49.404;7.734;2023-01-20T12:28:24;97194.50;;;0.36;100.00
23616;BME280;11985;49.404;7.734;2023-01-20T12:33:29;97195.47;;;0.35;100.00
23616;BME280;11985;49.404;7.734;2023-01-20T12:38:39;97194.09;;;0.41;100.00
23616;BME280;11985;49.404;7.734;2023-01-20T12:43:52;97190.88;;;0.57;100.00
23616;BME280;11985;49.404;7.734;2023-01-20T12:49:13;97194.03;;;0.50;100.00
23616;BME280;11985;49.404;7.734;2023-01-20T12:54:33;97189.59;;;0.61;100.00
23616;BME280;11985;49.404;7.734;2023-01-20T12:59:45;97193.66;;;0.73;100.00
23616;BME280;11985;49.404;7.734;2023-01-20T13:10:50;97181.63;;;0.72;100.00
23616;BME280;11985;49.404;7.734;2023-01-20T13:15:59;97176.44;;;0.72;100.00
23616;BME280;11985;49.404;7.734;2023-01-20T13:21:06;97171.72;;;0.85;100.00
23616;BME280;11985;49.404;7.734;2023-01-20T13:26:11;97176.16;;;0.93;99.51
23616;BME280;11985;49.404;7.734;2023-01-20T13:31:41;97172.16;;;1.16;100.00
23616;BME280;11985;49.404;7.734;2023-01-20T13:37:20;97168.63;;;1.17;98.71
23616;BME280;11985;49.404;7.734;2023-01-20T13:42:27;97175.13;;;1.03;98.80
23616;BME280;11985;49.404;7.734;2023-01-20T13:47:52;97176.38;;;0.99;98.81
23616;BME280;11985;49.404;7.734;2023-01-20T13:53:12;97183.44;;;0.89;99.15
23616;BME280;11985;49.404;7.734;2023-01-20T13:58:15;97184.31;;;0.80;98.93
23616;BME280;11985;49.404;7.734;2023-01-20T14:03:21;97187.19;;;0.77;98.55
23616;BME280;11985;49.404;7.734;2023-01-20T14:08:25;97190.38;;;0.71;97.98
23616;BME280;11985;49.404;7.734;2023-01-20T14:13:27;97197.47;;;0.69;97.12
23616;BME280;11985;49.404;7.734;2023-01-20T14:18:30;97198.34;;;0.60;96.29
23616;BME280;11985;49.404;7.734;2023-01-20T14:23:34;97203.09;;;0.64;97.10
23616;BME280;11985;49.404;7.734;2023-01-20T14:28:42;97199.47;;;0.57;95.52
23616;BME280;11985;49.404;7.734;2023-01-20T14:33:49;97191.44;;;0.50;96.11
23616;BME280;11985;49.404;7.734;2023-01-20T14:38:55;97206.03;;;0.51;95.85
23616;BME280;11985;49.404;7.734;2023-01-20T14:43:58;97194.31;;;0.47;95.65
23616;BME280;11985;49.404;7.734;2023-01-20T14:49:02;97204.47;;;0.31;95.28
23616;BME280;11985;49.404;7.734;2023-01-20T14:54:26;97205.59;;;0.29;96.38
23616;BME280;11985;49.404;7.734;2023-01-20T14:59:27;97206.91;;;0.33;97.01
23616;BME280;11985;49.404;7.734;2023-01-20T15:04:35;97217.63;;;0.10;98.03
23616;BME280;11985;49.404;7.734;2023-01-20T15:09:40;97216.25;;;-0.31;100.00
23616;BME280;11985;49.404;7.734;2023-01-20T15:14:52;97224.00;;;-0.31;100.00
23616;BME280;11985;49.404;7.734;2023-01-20T15:19:57;97227.56;;;-0.32;100.00
23616;BME280;11985;49.404;7.734;2023-01-20T15:25:02;97235.19;;;-0.31;100.00
23616;BME280;11985;49.404;7.734;2023-01-20T15:30:17;97239.13;;;-0.56;100.00
23616;BME280;11985;49.404;7.734;2023-01-20T15:35:24;97248.41;;;-0.63;100.00
23616;BME280;11985;49.404;7.734;2023-01-20T15:40:26;97245.81;;;-0.63;100.00
23616;BME280;11985;49.404;7.734;2023-01-20T15:45:28;97245.81;;;-0.63;100.00
23616;BME280;11985;49.404;7.734;2023-01-20T15:50:32;97244.19;;;-0.64;100.00
23616;BME280;11985;49.404;7.734;2023-01-20T15:55:33;97237.38;;;-0.55;100.00
23616;BME280;11985;49.404;7.734;2023-01-20T16:00:36;97245.56;;;-0.60;100.00
23616;BME280;11985;49.404;7.734;2023-01-20T16:05:39;97246.09;;;-0.66;100.00
23616;BME280;11985;49.404;7.734;2023-01-20T16:10:40;97251.56;;;-0.49;100.00
23616;BME280;11985;49.404;7.734;2023-01-20T16:15:42;97249.09;;;-0.41;100.00
23616;BME280;11985;49.404;7.734;2023-01-20T16:20:46;97248.66;;;-0.46;100.00
23616;BME280;11985;49.404;7.734;2023-01-20T16:25:48;97253.44;;;-0.42;100.00
23616;BME280;11985;49.404;7.734;2023-01-20T16:30:51;97248.78;;;-0.29;100.00
23616;BME280;11985;49.404;7.734;2023-01-20T16:35:55;97261.63;;;-0.27;100.00
23616;BME280;11985;49.404;7.734;2023-01-20T16:41:02;97260.53;;;-0.44;100.00
23616;BME280;11985;49.404;7.734;2023-01-20T16:46:04;97258.59;;;-0.61;100.00
23616;BME280;11985;49.404;7.734;2023-01-20T16:51:08;97265.16;;;-0.57;100.00
23616;BME280;11985;49.404;7.734;2023-01-20T16:56:13;97267.34;;;-0.52;100.00
23616;BME280;11985;49.404;7.734;2023-01-20T17:01:15;97270.88;;;-0.54;100.00
23616;BME280;11985;49.404;7.734;2023-01-20T17:06:23;97278.06;;;-0.67;100.00
23616;BME280;11985;49.404;7.734;2023-01-20T17:11:28;97273.84;;;-0.87;100.00
23616;BME280;11985;49.404;7.734;2023-01-20T17:16:29;97273.00;;;-0.97;100.00
23616;BME280;11985;49.404;7.734;2023-01-20T17:21:36;97281.16;;;-1.02;100.00
23616;BME280;11985;49.404;7.734;2023-01-20T17:26:38;97284.13;;;-1.07;100.00
23616;BME280;11985;49.404;7.734;2023-01-20T17:31:39;97278.84;;;-1.05;100.00
23616;BME280;11985;49.404;7.734;2023-01-20T17:36:43;97285.09;;;-1.08;100.00
23616;BME280;11985;49.404;7.734;2023-01-20T17:41:44;97282.25;;;-1.04;100.00
23616;BME280;11985;49.404;7.734;2023-01-20T17:46:47;97291.22;;;-1.09;100.00
23616;BME280;11985;49.404;7.734;2023-01-20T17:51:50;97293.81;;;-1.09;100.00
23616;BME280;11985;49.404;7.734;2023-01-20T17:56:52;97297.06;;;-1.07;100.00
23616;BME280;11985;49.404;7.734;2023-01-20T18:01:54;97298.06;;;-0.88;100.00
23616;BME280;11985;49.404;7.734;2023-01-20T18:06:57;97299.53;;;-0.95;100.00
23616;BME280;11985;49.404;7.734;2023-01-20T18:11:59;97296.53;;;-1.00;100.00
23616;BME280;11985;49.404;7.734;2023-01-20T18:17:00;97312.00;;;-1.20;100.00
23616;BME280;11985;49.404;7.734;2023-01-20T18:22:03;97311.47;;;-1.14;100.00
23616;BME280;11985;49.404;7.734;2023-01-20T18:27:07;97307.78;;;-1.21;100.00
23616;BME280;11985;49.404;7.734;2023-01-20T18:32:08;97310.75;;;-1.25;100.00
23616;BME280;11985;49.404;7.734;2023-01-20T18:37:11;97308.03;;;-1.24;100.00
23616;BME280;11985;49.404;7.734;2023-01-20T18:42:13;97304.50;;;-1.23;100.00
23616;BME280;11985;49.404;7.734;2023-01-20T18:47:14;97309.13;;;-1.26;100.00
23616;BME280;11985;49.404;7.734;2023-01-20T18:52:17;97305.28;;;-1.32;100.00
23616;BME280;11985;49.404;7.734;2023-01-20T18:57:19;97304.25;;;-1.20;100.00
23616;BME280;11985;49.404;7.734;2023-01-20T19:02:20;97300.69;;;-1.19;100.00
23616;BME280;11985;49.404;7.734;2023-01-20T19:07:23;97297.88;;;-1.16;100.00
23616;BME280;11985;49.404;7.734;2023-01-20T19:12:25;97299.59;;;-1.26;100.00
23616;BME280;11985;49.404;7.734;2023-01-20T19:17:26;97295.53;;;-1.19;100.00
23616;BME280;11985;49.404;7.734;2023-01-20T19:22:31;97305.31;;;-1.22;100.00
23616;BME280;11985;49.404;7.734;2023-01-20T19:27:32;97303.97;;;-1.17;100.00
23616;BME280;11985;49.404;7.734;2023-01-20T19:32:34;97304.50;;;-1.23;100.00
23616;BME280;11985;49.404;7.734;2023-01-20T19:37:41;97315.41;;;-1.19;100.00
23616;BME280;11985;49.404;7.734;2023-01-20T19:42:42;97308.63;;;-1.11;100.00
23616;BME280;11985;49.404;7.734;2023-01-20T19:47:47;97307.41;;;-1.07;100.00
23616;BME280;11985;49.404;7.734;2023-01-20T19:52:50;97305.63;;;-1.16;100.00
23616;BME280;11985;49.404;7.734;2023-01-20T19:57:53;97320.44;;;-1.18;100.00
23616;BME280;11985;49.404;7.734;2023-01-20T20:02:54;97311.03;;;-1.19;100.00
23616;BME280;11985;49.404;7.734;2023-01-20T20:07:59;97314.00;;;-1.23;100.00
23616;BME280;11985;49.404;7.734;2023-01-20T20:13:01;97322.16;;;-1.28;100.00
23616;BME280;11985;49.404;7.734;2023-01-20T20:18:03;97325.69;;;-1.29;100.00
23616;BME280;11985;49.404;7.734;2023-01-20T20:23:07;97327.31;;;-1.28;100.00
23616;BME280;11985;49.404;7.734;2023-01-20T20:28:08;97332.81;;;-1.12;100.00
23616;BME280;11985;49.404;7.734;2023-01-20T20:33:10;97343.59;;;-1.07;100.00
23616;BME280;11985;49.404;7.734;2023-01-20T20:38:13;97341.38;;;-1.11;100.00
23616;BME280;11985;49.404;7.734;2023-01-20T20:43:14;97345.88;;;-1.13;100.00
23616;BME280;11985;49.404;7.734;2023-01-20T20:48:16;97345.50;;;-1.09;100.00
23616;BME280;11985;49.404;7.734;2023-01-20T20:53:19;97344.00;;;-1.01;100.00
23616;BME280;11985;49.404;7.734;2023-01-20T20:58:21;97342.63;;;-1.06;100.00
23616;BME280;11985;49.404;7.734;2023-01-20T21:03:22;97345.88;;;-1.13;100.00
23616;BME280;11985;49.404;7.734;2023-01-20T21:08:25;97355.03;;;-1.09;100.00
23616;BME280;11985;49.404;7.734;2023-01-20T21:13:27;97359.81;;;-0.95;100.00
23616;BME280;11985;49.404;7.734;2023-01-20T21:18:29;97363.91;;;-0.92;100.00
23616;BME280;11985;49.404;7.734;2023-01-20T21:23:33;97366.59;;;-1.03;100.00
23616;BME280;11985;49.404;7.734;2023-01-20T21:28:37;97359.84;;;-0.85;100.00
23616;BME280;11985;49.404;7.734;2023-01-20T21:33:41;97364.66;;;-0.61;100.00
23616;BME280;11985;49.404;7.734;2023-01-20T21:38:46;97366.06;;;-0.47;100.00
23616;BME280;11985;49.404;7.734;2023-01-20T21:43:48;97372.63;;;-0.43;100.00
23616;BME280;11985;49.404;7.734;2023-01-20T21:49:07;97369.22;;;-0.44;100.00
23616;BME280;11985;49.404;7.734;2023-01-20T21:54:28;97367.56;;;-0.45;100.00
23616;BME280;11985;49.404;7.734;2023-01-20T21:59:30;97375.75;;;-0.49;100.00
23616;BME280;11985;49.404;7.734;2023-01-20T22:04:31;97380.91;;;-0.49;100.00
23616;BME280;11985;49.404;7.734;2023-01-20T22:09:34;97380.63;;;-0.46;100.00
23616;BME280;11985;49.404;7.734;2023-01-20T22:14:36;97387.56;;;-0.57;100.00
23616;BME280;11985;49.404;7.734;2023-01-20T22:19:38;97387.56;;;-0.66;100.00
23616;BME280;11985;49.404;7.734;2023-01-20T22:24:41;97392.31;;;-0.62;100.00
23616;BME280;11985;49.404;7.734;2023-01-20T22:29:43;97397.50;;;-0.52;100.00
23616;BME280;11985;49.404;7.734;2023-01-20T22:34:44;97409.50;;;-0.51;100.00
23616;BME280;11985;49.404;7.734;2023-01-20T22:39:47;97406.91;;;-0.51;100.00
23616;BME280;11985;49.404;7.734;2023-01-20T22:44:49;97418.75;;;-0.48;100.00
23616;BME280;11985;49.404;7.734;2023-01-20T22:49:51;97421.50;;;-0.50;100.00
23616;BME280;11985;49.404;7.734;2023-01-20T22:54:57;97420.94;;;-0.54;100.00
23616;BME280;11985;49.404;7.734;2023-01-20T22:59:58;97431.28;;;-0.54;100.00
23616;BME280;11985;49.404;7.734;2023-01-20T23:05:00;97431.28;;;-0.54;100.00
23616;BME280;11985;49.404;7.734;2023-01-20T23:10:03;97431.53;;;-0.57;100.00
23616;BME280;11985;49.404;7.734;2023-01-20T23:15:05;97431.28;;;-0.54;100.00
23616;BME280;11985;49.404;7.734;2023-01-20T23:20:08;97437.84;;;-0.49;100.00
23616;BME280;11985;49.404;7.734;2023-01-20T23:25:11;97445.16;;;-0.55;100.00
23616;BME280;11985;49.404;7.734;2023-01-20T23:30:14;97442.16;;;-0.60;100.00
23616;BME280;11985;49.404;7.734;2023-01-20T23:35:15;97447.34;;;-0.60;100.00
23616;BME280;11985;49.404;7.734;2023-01-20T23:40:19;97449.50;;;-0.65;100.00
23616;BME280;11985;49.404;7.734;2023-01-20T23:45:20;97448.91;;;-0.68;100.00
23616;BME280;11985;49.404;7.734;2023-01-20T23:50:22;97456.25;;;-0.73;100.00
23616;BME280;11985;49.404;7.734;2023-01-20T23:55:25;97452.84;;;-0.74;100.00
